arxmliv
arxmliv build tool
 
KWARC group
LaTeXML
About
   
 

Detailed info

Back to Homepage

List of missing_macros

No. Date Filename num_warningnum_errornum_xmargok_xmargnum_xmathok_xmathMissing macros
143401 2013-03-03 11:47:44 /0306/hep-ph.0306154 020000[\abstracts]; 1 missing file[ws.sty].
143402 2013-03-03 11:47:14 /0306/hep-ph.0306140 130000[\address].
143403 2013-03-03 11:46:57 /0306/hep-ph.0306144 130000[\includegraphics, \address, \abstracts]; 1 missing file[Rinton-P9x6.cls].
143404 2013-03-03 11:46:18 /0306/hep-ph.0306135 6390000[\institution, \Photon, \runtitle, \ArrowLine, \Text, \email, \runauthor, \SetOffset, {topmatter}]; 1 missing file[npcs.cls].
143405 2013-03-03 11:45:58 /0306/hep-ph.0306121 2240000[\BoxedEPSF, \SetRokickiEPSFSpecial, \HideDisplacementBoxes]; 1 missing file[boxedeps.tex].
143406 2013-03-03 11:45:49 /0306/hep-ph.0306123 670000[\gtrsim, \epsfbox, \abstracts, \epsfxsize]; 1 missing file[ws.sty].
143407 2013-03-03 11:45:48 /0306/hep-ph.0306108 12170000[\cf, \BCirc, \preprint, \Line, \Photon, \e, \ArrowLine, \Text, \Vertex, \eg, \PACS, \ZigZag, \Gluon, \ie, \DashLine]; 2 missing files[size11.clo.sty, colordvi.sty].
143408 2013-03-03 11:45:38 /0306/hep-ph.0306098 53150000[\address, \thechapter@ID, \epsfig, \tbl, \refcite]; 1 missing file[ws.sty].
143409 2013-03-03 11:45:33 /0306/hep-ph.0306116 3650000[\epsfbox, \abstracts, \epsfysize, \epsfxsize]; 1 missing file[ws.sty].
143410 2013-03-03 11:44:27 /0306/hep-ph.0306104 10250000[\udk, \cyrs, \inst, \cyre, \cyrt, \avtorcol, \cyrl, \adr, \CYRS, \anot, \cyrery, \cyri, \adri, \cyrk, \cyrr, \nazva, \cyro, \cyru, \nazvacol, \cyra, \avtor, \maketitl, \cyrp, \insti]; 1 missing file[T2Aenc.def].
143411 2013-03-03 11:44:17 /0306/hep-ph.0306089 1210000[\setcaptionwidth].
143412 2013-03-03 11:44:08 /0306/hep-ph.0306079 32760000[\FAVert, \FADiagram, {feynartspicture}, \FALabel, \FAProp].
143413 2013-03-03 11:43:45 /0306/hep-ph.0306091 8930000[\PACS, \eqsec]; 1 missing file[size11.clo.sty].
143414 2013-03-03 11:43:16 /0306/hep-ph.0306095 310000[\address].
143415 2013-03-03 11:43:04 /0306/hep-ph.0306040 9910000[\theappendix].
143416 2013-03-03 11:42:57 /0306/hep-ph.0306078 1490000[\address, \epsfbox, \abstracts, \epsfig]; 1 missing file[Rinton-P9x6.cls].
143417 2013-03-03 11:42:29 /0306/hep-ph.0306071 3740000[{rotate}].
143418 2013-03-03 11:42:27 /0306/hep-ph.0306085 140000[\subtitle, \institute, \runningtitle, {opening}].
143419 2013-03-03 11:41:47 /0306/hep-ph.0306049 1010000[\setcaptionmargin].
143420 2013-03-03 11:41:46 /0306/hep-ph.0306075 520000[\abstracts]; 1 missing file[ws.sty].
143421 2013-03-03 11:41:40 /0306/hep-ph.0306058 3930000[\includegraphics, \address, \confname]; 1 missing file[ckm.cls].
143422 2013-03-03 11:41:26 /0306/hep-ph.0306063 2850000[{theacknowledgments}, \layoutstyle, \tablehead].
143423 2013-03-03 11:41:24 /0306/hep-ph.0306065 9110000[\citen].
143424 2013-03-03 11:41:09 /0306/hep-lat.0306035 13140000[\FAVert, \FADiagram, {feynartspicture}, \FAProp].
143425 2013-03-03 11:41:01 /0306/hep-ph.0306043 4300000[\fmf, \fmfipath, \fmftop, \fmfv, \fmfdot, \fmfpen, {fmfgraph*}, \fmfleft, \fmfright, \fmfiset, \fmfstraight, {fmffile}, \fmffreeze, \fmfbottom, \fmfiv, \fmfi].
143426 2013-03-03 11:40:38 /0306/hep-ph.0306037 910000[\psfrag].
143427 2013-03-03 11:40:21 /0306/hep-ph.0306042 850000[\Text, \GCirc, \Photon].
143428 2013-03-03 11:40:19 /0306/hep-ph.0306031 24910000[\psfrag].
143429 2013-03-03 11:40:12 /0306/hep-ph.0306045 2140000[\Text, \ArrowLine, \Photon, \DashLine].
143430 2013-03-03 11:39:32 /0306/hep-ph.0306035 3520000[\abstracts]; 1 missing file[ws.sty].
143431 2013-03-03 11:38:49 /0306/hep-lat.0306031 2850000[\citen].
143432 2013-03-03 11:38:27 /0306/hep-ph.0306001 880000[\psfig]; 1 missing file[psfig].
143433 2013-03-03 11:38:12 /0306/hep-lat.0306037 010000[\layoutstyle].
143434 2013-03-03 11:38:05 /0306/hep-lat.0306038 7110000[\mathds, \gerry, \varint]; 1 missing file[textfit.sty].
143435 2013-03-03 11:37:54 /0306/hep-lat.0306032 040000[\Line, \Vertex, \Eins]; 1 missing file[mathbbol.sty].
143436 2013-03-03 11:37:47 /0306/hep-ph.0306004 1320000[\address, \confname]; 1 missing file[ckm.cls].
143437 2013-03-03 11:37:21 /0306/hep-lat.0306015 3270000[\Vertex, \Text, \ArrowLine, \GlueArc, \ArrowArcn, \LongArrow, \Gluon].
143438 2013-03-03 11:37:07 /0306/gr-qc.0306052 22330000[\@mkboth, \fancyplain, \@starttoc].
143439 2013-03-03 11:36:53 /0306/hep-lat.0306021 1410000[\slashed].
143440 2013-03-03 11:36:49 /0306/hep-lat.0306033 130000[\PACS, \psfrag]; 1 missing file[size11.clo.sty].
143441 2013-03-03 11:36:45 /0306/hep-lat.0306019 2410000[{centering}].
143442 2013-03-03 11:36:29 /0306/hep-lat.0306008 1530000[{sidetable}]; 1 missing file[side.sty].
143443 2013-03-03 11:36:24 /0306/hep-lat.0306011 4010000[\psfrag].
143444 2013-03-03 11:35:47 /0306/hep-lat.0306024 010000[\layoutstyle].
143445 2013-03-03 11:35:22 /0306/hep-ex.0306056 14220000[\epsfbox, \abstracts, \epsfysize, \epsfxsize]; 1 missing file[ws.sty].
143446 2013-03-03 11:35:08 /0306/hep-ex.0306058 620000[\address, \abstracts].
143447 2013-03-03 11:35:05 /0306/hep-ex.0306059 1830000[\includegraphics, \address, \confname]; 1 missing file[ckm.cls].
143448 2013-03-03 11:34:55 /0306/hep-ex.0306061 12180000[\includegraphics, \address, \confname]; 1 missing file[ckm.cls].
143449 2013-03-03 11:34:50 /0306/hep-ex.0306052 2010000[\smaller].
143450 2013-03-03 11:34:44 /0306/hep-ex.0306046 1660000[\ccode, \catchline, \psfig, \refcite, \keywords]; 1 missing file[ws.sty].
143451 2013-03-03 11:34:37 /0306/hep-ex.0306054 39170000[\includegraphics, \address, \confname, \rotatebox, \addressmark]; 1 missing file[ckm.cls].
143452 2013-03-03 11:34:23 /0306/hep-ex.0306051 640000[\includegraphics, \address, \confname, \addressmark]; 1 missing file[ckm.cls].
143453 2013-03-03 11:34:17 /0306/hep-ex.0306038 2010000[\smaller].
143454 2013-03-03 11:34:16 /0306/hep-ex.0306035 210000[\psfrag].
143455 2013-03-03 11:34:04 /0306/hep-ex.0306018 423800000[\xspace, \makezeustitle, {mcbibliography}, \epsfig, \text, \prepnum]; 1 missing file[./zeus_paper.cls].
143456 2013-03-03 11:34:04 /0306/hep-ex.0306026 2910000[\smaller].
143457 2013-03-03 11:33:41 /0306/hep-ex.0306013 1310000[\href].
143458 2013-03-03 11:33:28 /0306/hep-ex.0306029 470000[Align, \epsfbox, \abstracts, {split}, \tbl, \epsfxsize]; 1 missing file[ws.sty].
143459 2013-03-03 11:33:27 /0306/hep-ex.0306031 530000[\abstracts, \tbl]; 1 missing file[ws.sty].
143460 2013-03-03 11:33:19 /0306/hep-ex.0306016 090000[\preprint, \epem, \e, \citet, \submitted, \GeV, \journalname]; 2 missing files[Lep.sty, l3_title.sty].
143461 2013-03-03 11:33:17 /0306/hep-ex.0306017 1670000[\preprint, \citet, \submitted, \W, \journalname]; 2 missing files[Lep.sty, l3_title.sty].
143462 2013-03-03 11:32:56 /0306/hep-ex.0306003 2510000[\smaller].
143463 2013-03-03 11:31:53 /0306/gr-qc.0306111 070000[\catchline, {history}, \revised, \refcite, \keywords, \received]; 1 missing file[ws.sty].
143464 2013-03-03 11:31:34 /0306/gr-qc.0306100 010000[\bezier].
143465 2013-03-03 11:31:24 /0306/gr-qc.0306094 2230000[\figlabel, \figstep]; 1 missing file[figlabel.sty].
143466 2013-03-03 11:31:14 /0306/gr-qc.0306104 17230000[\address, {iapbib}, \heading]; 1 missing file[conf_iap.sty].
143467 2013-03-03 11:30:35 /0306/gr-qc.0306095 030000[\pssilent, \psfig]; 1 missing file[psfig].
143468 2013-03-03 11:30:20 /0306/gr-qc.0306081 450000[\extrasenglish, \dateenglish, \captionsenglish].
143469 2013-03-03 11:28:44 /0306/gr-qc.0306063 210000[\theappendix].
143470 2013-03-03 11:28:10 /0306/gr-qc.0306059 1010000[\theappendix].
143471 2013-03-03 11:27:26 /0306/gr-qc.0306053 040000[\address, \abstracts].
143472 2013-03-03 11:27:23 /0306/gr-qc.0306055 2120000[\citenum, \authorinfo, \skiplinehalf, \keywords, \supit]; 1 missing file[spie.cls].
143473 2013-03-03 11:27:08 /0306/gr-qc.0306022 12210000[\psfrag].
143474 2013-03-03 11:26:37 /0306/cs.0306134 13810000[\theappendix].
143475 2013-03-03 11:26:07 /0306/gr-qc.0306023 810000[\address].
143476 2013-03-03 11:25:18 /0306/gr-qc.0306019 730000[\psplot, \txt]; 1 missing file[xy.sty].
143477 2013-03-03 11:25:17 /0306/gr-qc.0306008 3230000[\D, \E, \I].
143478 2013-03-03 11:25:15 /0306/cs.0306041 190100000[Align, \psfrag, \infer]; 1 missing file[styles/proof.sty].
143479 2013-03-03 11:25:12 /0306/cs.0306124 6110000[\citeyear].
143480 2013-03-03 11:24:47 /0306/cs.0306097 2510000[\arc].
143481 2013-03-03 11:24:45 /0306/cs.0306106 18210000[\citeyear].
143482 2013-03-03 11:24:25 /0306/cs.0306117 9440000[\drawedge, \node, \drawloop, \gasset].
143483 2013-03-03 11:24:10 /0306/cs.0306122 370000[\email, \affaddr, \numberofauthors, \balancecolumns, \alignauthor]; 2 missing files[hyphenat.sty, www2003-submission.cls].
143484 2013-03-03 11:24:03 /0306/cs.0306107 2280000[\citeyear, \category, {received}, {proof}, \terms, \newdef, {acks}, \keywords]; 1 missing file[acmtrans2m.cls].
143485 2013-03-03 11:24:00 /0306/cs.0306131 1540000[\@highpenalty].
143486 2013-03-03 11:23:55 /0306/cs.0306043 39340000[\gElse, \SetKwIf, \SetKw, {algorithm}, \KwBreak, \For, \If, \lnl, \lElse, \decmargin, \uIf, \Else, \KwSend, \While, \dontprintsemicolon, \KwDownTo, \lIf, \gIf].
143487 2013-03-03 11:23:53 /0306/cs.0306132 1250000[\address, \shorttitle, \authortag, \shortauthor]; 1 missing file[sibgrapi.sty].
143488 2013-03-03 11:23:47 /0306/cs.0306104 030000[\excludeversion, \includeversion]; 1 missing file[version.sty].
143489 2013-03-03 11:22:45 /0306/cs.0306015 710000[\geometry].
143490 2013-03-03 11:22:43 /0306/cs.0306065 010000[{rotate}].
143491 2013-03-03 11:22:37 /0306/cs.0306039 120000[\shortcite]; 1 missing file[ijcai03.sty].
143492 2013-03-03 11:22:23 /0306/cs.0306050 030000[\citename, \shortcite]; 1 missing file[hltnaacl03.sty].
143493 2013-03-03 11:22:10 /0306/cs.0306032 340000[\titlehead, \affiliation, \authorhead]; 1 missing file[actes.sty].
143494 2013-03-03 11:21:42 /0306/cs.0306022 630000[\address, \ninept]; 1 missing file[eurospeech_01.sty].
143495 2013-03-03 11:21:14 /0306/cond-mat.0306748 030000[\extrasenglish, \dateenglish, \captionsenglish].
143496 2013-03-03 11:20:29 /0306/cond-mat.0306734 050000[\@affiliation].
143497 2013-03-03 11:20:16 /0306/cond-mat.0306738 030000[\extrasenglish, \dateenglish, \captionsenglish].
143498 2013-03-03 11:20:04 /0306/cond-mat.0306724 430000[{comment}, \psfrag].
143499 2013-03-03 11:19:39 /0306/cond-mat.0306710 1110000[\footrulewidth].
143500 2013-03-03 11:18:17 /0306/cond-mat.0306676 410000[\theappendix].
143501 2013-03-03 11:18:00 /0306/cond-mat.0306679 1180000[\gtrsim, {history}, \psfig, \revised, \refcite, \keywords, \received]; 1 missing file[ws.sty].
143502 2013-03-03 11:17:11 /0306/cond-mat.0306661 010000[\psfrag].
143503 2013-03-03 11:17:07 /0306/cond-mat.0306647 070000[\naput]; 2 missing files[pst-char.sty, pst-3d.sty].
143504 2013-03-03 11:15:43 /0306/cond-mat.0306621 150000[\@affiliation, \onefigure, \etal].
143505 2013-03-03 11:15:12 /0306/cond-mat.0306573 2210000[\theappendix].
143506 2013-03-03 11:15:07 /0306/cond-mat.0306592 010000[\address].
143507 2013-03-03 11:14:54 /0306/cond-mat.0306590 1230000[\includegraphics, \affiliation]; 1 missing file[jfm.sty].
143508 2013-03-03 11:14:34 /0306/cond-mat.0306589 1620000[{theacknowledgments}, \layoutstyle].
143509 2013-03-03 11:13:54 /0306/cond-mat.0306567 230000[{theacknowledgments}, \layoutstyle, \psfrag].
143510 2013-03-03 11:13:52 /0306/cond-mat.0306566 10160000[Align, \ls, \affiliation, \ns, \returnthesubequation, {subeqnarray}]; 1 missing file[jfm.cls].
143511 2013-03-03 11:13:46 /0306/cond-mat.0306552 1580000[\sodauthor, \rauthor, \address, \sodtitle, \dates, \lat, \PACS, \rtitle].
143512 2013-03-03 11:13:32 /0306/cond-mat.0306555 170000[\twofigures, \email, \@affiliation, \etal]; 1 missing file[colordvi.sty].
143513 2013-03-03 11:13:17 /0306/cond-mat.0306542 1340000[{theacknowledgments}, \layoutstyle, \tablehead]; 1 missing file[{aipcheck}].
143514 2013-03-03 11:13:08 /0306/cond-mat.0306520 2470000[\address, \thechapter, \epsfbox, \@currentID, \drawline, \epsfxsize]; 1 missing file[ws.sty].
143515 2013-03-03 11:12:55 /0306/cond-mat.0306546 380000[\email, \@affiliation, \etal].
143516 2013-03-03 11:12:01 /0306/cond-mat.0306522 820000[\psfig]; 1 missing file[psfig].
143517 2013-03-03 11:11:42 /0306/cond-mat.0306511 6110000[{comment}].
143518 2013-03-03 11:11:31 /0306/cond-mat.0306512 070000[\captionsamerican, \extrasenglish, \dateamerican, \noextrasenglish, \extrasamerican, \dateenglish, \captionsenglish].
143519 2013-03-03 11:11:04 /0306/cond-mat.0306504 030000[\extrasenglish, \dateenglish, \captionsenglish].
143520 2013-03-03 11:10:49 /0306/cond-mat.0306492 360000[\kword, \abst, \inst, \recdate, \mib, \citen].
143521 2013-03-03 11:10:19 /0306/cond-mat.0306482 150000[\cf, \eg, \PACS, \ie]; 1 missing file[size11.clo.sty].
143522 2013-03-03 11:10:18 /0306/cond-mat.0306481 0550000[\@affiliation, \onefigure, \chem].
143523 2013-03-03 11:09:46 /0306/cond-mat.0306470 320000[\PACS]; 1 missing file[size11.clo.sty].
143524 2013-03-03 11:09:24 /0306/cond-mat.0306451 420000[\psfrag].
143525 2013-03-03 11:09:12 /0306/cond-mat.0306454 010000[\theappendix].
143526 2013-03-03 11:09:03 /0306/cond-mat.0306461 1360000[\kword, \abst, \inst, \recdate].
143527 2013-03-03 11:08:12 /0306/cond-mat.0306437 250000[\mib, \epsffile, \epsfxsize]; 2 missing files[subeqna.sty, jpsjbs.sty].
143528 2013-03-03 11:08:04 /0306/cond-mat.0306436 010000[\mathsmaller].
143529 2013-03-03 11:06:47 /0306/cond-mat.0306400 030000[\extrasenglish, \dateenglish, \captionsenglish].
143530 2013-03-03 11:05:51 /0306/cond-mat.0306331 3420000[\gtrless]; 1 missing file[{amssymb.sty}].
143531 2013-03-03 11:05:21 /0306/cond-mat.0306367 4140000[\email, \@affiliation].
143532 2013-03-03 11:04:43 /0306/cond-mat.0306356 160000[\address, \thanksref, \PACS, \sep, {frontmatter}, {keyword}]; 1 missing file[PHYEAUTH.cls].
143533 2013-03-03 11:04:05 /0306/cond-mat.0306335 0250000[{tablenotes}, \tnote, {threeparttable}]; 1 missing file[threeparttable.sty].
143534 2013-03-03 11:04:05 /0306/cond-mat.0306350 550000[\kword, \abst, \inst, \recdate, \mib].
143535 2013-03-03 11:03:17 /0306/cond-mat.0306324 160000[\address, \thanksref, \PACS, \sep, {frontmatter}, {keyword}]; 1 missing file[PHYEAUTH.cls].
143536 2013-03-03 11:03:11 /0306/cond-mat.0306325 160000[\address, \thanksref, \PACS, \sep, {frontmatter}, {keyword}]; 1 missing file[PHYEAUTH.cls].
143537 2013-03-03 11:02:54 /0306/cond-mat.0306330 260000[\address, \thanksref, \PACS, \sep, {frontmatter}, {keyword}]; 1 missing file[PHYEAUTH.cls].
143538 2013-03-03 11:02:41 /0306/cond-mat.0306317 010000[\braket].
143539 2013-03-03 11:01:55 /0306/cond-mat.0306281 3720000[\psfig]; 1 missing file[psfig.tex].
143540 2013-03-03 11:01:44 /0306/cond-mat.0306277 040000[\extrasenglish, \geometry, \dateenglish, \captionsenglish].
143541 2013-03-03 11:01:12 /0306/cond-mat.0306269 210000[\psfrag].
143542 2013-03-03 11:00:51 /0306/cond-mat.0306276 120000[\toctitle]; 1 missing file[taphys.sty].
143543 2013-03-03 11:00:35 /0306/cond-mat.0306249 130000[\extrasenglish, \dateenglish, \captionsenglish].
143544 2013-03-03 10:59:58 /0306/cond-mat.0306253 310000[\footrulewidth].
143545 2013-03-03 10:59:39 /0306/cond-mat.0306215 5130000[\theappendix].
143546 2013-03-03 10:59:24 /0306/cond-mat.0306242 210000[\epsffileline].
143547 2013-03-03 10:58:57 /0306/cond-mat.0306198 1450000[\psfrag].
143548 2013-03-03 10:58:05 /0306/cond-mat.0306208 140000[\runningauthor, \institute, {opening}, {article}].
143549 2013-03-03 10:57:42 /0306/cond-mat.0306164 110000[\theappendix].
143550 2013-03-03 10:57:19 /0306/cond-mat.0306180 910000[\delimiter].
143551 2013-03-03 10:56:42 /0306/cond-mat.0306169 110000[\theappendix].
143552 2013-03-03 10:56:35 /0306/cond-mat.0306162 230000[\theappendix, \address, \email].
143553 2013-03-03 10:56:06 /0306/cond-mat.0306150 030000[\theappendix].
143554 2013-03-03 10:55:01 /0306/cond-mat.0306111 1650000[\epsfbox, \citet, \epsfxsize]; 2 missing files[subeqna.sty, jpsjbs.sty].
143555 2013-03-03 10:54:54 /0306/cond-mat.0306107 910000[\footrulewidth].
143556 2013-03-03 10:51:46 /0306/cond-mat.0306042 820000[{theacknowledgments}, \layoutstyle].
143557 2013-03-03 10:50:33 /0306/cond-mat.0306005 2780000[\surname, \institute, {opening}, {article}, \keywords, \email, \runningauthor, \acknowledgements].
143558 2013-03-03 10:50:15 /0306/cond-mat.0306003 8190000[\ls, \iffontfound, \ifCUPmtlplainloaded, \affiliation, \ns, \volume, \FloatBarrier, \pagerange, \checkfont, \pubyear]; 1 missing file[jfm.cls].
143559 2013-03-03 10:50:13 /0306/astro-ph.0306592 140000[\subsubsubsection]; 1 missing file[apjfonts.sty].
143560 2013-03-03 10:49:54 /0306/astro-ph.0306464 520000[\tableheadfrac]; 1 missing file[apjfonts.sty].
143561 2013-03-03 10:49:46 /0306/astro-ph.0306623 510000[\citeauthoryear].
143562 2013-03-03 10:49:15 /0306/astro-ph.0306613 1140000[{acknowledgments}, \affil, \apj, \tablenotetext, \tableline, {article}, \authoraddr, \authorrunninghead, \aap, \mnras, \setkeys, \tablenotemark, \jgr, \titlerunninghead]; 1 missing file[agu2001.cls].
143563 2013-03-03 10:48:54 /0306/astro-ph.0306618 150000[\addresstext, \address, \email, \submitted, \keywords]; 1 missing file[pazh_mod.cls].
143564 2013-03-03 10:48:52 /0306/astro-ph.0306605 210000[\permil].
143565 2013-03-03 10:48:37 /0306/astro-ph.0306603 080000[\surname, \institute, {opening}, {article}, \keywords, \theendnotes, \runningauthor, \acknowledgements].
143566 2013-03-03 10:48:26 /0306/astro-ph.0306598 210000[\subsubsubsection].
143567 2013-03-03 10:48:05 /0306/astro-ph.0306594 110000[\subsubsubsection].
143568 2013-03-03 10:47:36 /0306/astro-ph.0306596 3630000[\thechapter, \@currentID, \HeadText, {thereferences}]; 2 missing files[ociwsymp3.sty, caps.cls].
143569 2013-03-03 10:47:24 /0306/astro-ph.0306590 3810000[\theappendix].
143570 2013-03-03 10:47:00 /0306/astro-ph.0306587 210000[\citeauthoryear].
143571 2013-03-03 10:46:39 /0306/astro-ph.0306580 310000[\submitted].
143572 2013-03-03 10:46:33 /0306/astro-ph.0306560 810000[\theappendix].
143573 2013-03-03 10:46:19 /0306/astro-ph.0306567 9010000[\nofiles].
143574 2013-03-03 10:46:02 /0306/astro-ph.0306564 110000[\nofiles].
143575 2013-03-03 10:46:00 /0306/astro-ph.0306563 180000[\includegraphics, \authorstucture, \talkauthors, \shorttitle, \firstauthor, \structure, \talktitle]; 1 missing file[perugia.sty].
143576 2013-03-03 10:45:52 /0306/astro-ph.0306570 1170000[\ApJ, \um, \AaAS, \hii, \AJ, \ccap, \kms, \hip, \PhFl, \MNRAS, \kmsp, \ApJS, \hi, \AaA, \PASP]; 2 missing files[mamd.sty, pjournal.sty].
143577 2013-03-03 10:45:22 /0306/astro-ph.0306553 3910000[{acknowledgments}, \sidebyside, \affil, \footnote, \articletitle, {chapthebibliography}, \psfig, Align, \kluwerbib].
143578 2013-03-03 10:45:14 /0306/astro-ph.0306557 0240000[\includegraphics, \authorstucture, \talkauthors, \shorttitle, \firstauthor, \structure, \talktitle]; 1 missing file[perugia.sty].
143579 2013-03-03 10:45:12 /0306/astro-ph.0306540 3440000[\astroncite, \xmm].
143580 2013-03-03 10:44:55 /0306/astro-ph.0306534 010000[\theappendix].
143581 2013-03-03 10:44:38 /0306/astro-ph.0306532 1380000[\surname, \institute, {opening}, {article}, \keywords, \newdisplay, \runningauthor, \acknowledgements].
143582 2013-03-03 10:44:04 /0306/astro-ph.0306527 410000[\astroncite].
143583 2013-03-03 10:44:03 /0306/astro-ph.0306512 830000[\theappendix].
143584 2013-03-03 10:43:45 /0306/astro-ph.0306483 030000[\al@[].
143585 2013-03-03 10:43:15 /0306/astro-ph.0306506 28280000[\address, \epsfbox, \righthead, {references}, \epsfxsize, \lefthead].
143586 2013-03-03 10:42:56 /0306/astro-ph.0306502 0100000[\citeauthoryear, \opencite, \surname, \institute, {opening}, {article}, \keywords, \newdisplay, \runningauthor, \inlinecite].
143587 2013-03-03 10:41:55 /0306/astro-ph.0306480 320000[\psfig]; 1 missing file[psfig].
143588 2013-03-03 10:41:34 /0306/astro-ph.0306471 760000[\egcite, \ncite, \scite]; 1 missing file[pjw_cite3.sty].
143589 2013-03-03 10:41:23 /0306/astro-ph.0306469 620000[\theappendix]; 1 missing file[apjfonts.sty].
143590 2013-03-03 10:41:22 /0306/astro-ph.0306465 24310000[\firstsection, \ls, \ifnfsstwo, \ifnfssone, \ifoldfss, \affiliation, \ns, \psfig]; 1 missing file[cupconf.sty].
143591 2013-03-03 10:40:52 /0306/astro-ph.0306477 4120000[{acknowledgments}, \affil, \apj, {article}, \authoraddr, \authorrunninghead, \aap, \mnras, \grl, \setkeys, \jgr, \titlerunninghead]; 1 missing file[agu2001.cls].
143592 2013-03-03 10:40:49 /0306/astro-ph.0306475 010000[\nofiles].
143593 2013-03-03 10:40:35 /0306/astro-ph.0306478 060000[\affil, \apj, \reference, \plotone, {references}]; 1 missing file[newpasp.sty].
143594 2013-03-03 10:40:22 /0306/astro-ph.0306466 920000[\abstracts]; 1 missing file[ws.sty].
143595 2013-03-03 10:40:05 /0306/astro-ph.0306450 4110000[\draft, \lesssim, \timeform, \altaffilmark, \Received, \FigureFile, \Accepted, \email, \altaffiltext, \SetRunningHead, \KeyWords]; 1 missing file[pasj00.cls].
143596 2013-03-03 10:39:58 /0306/astro-ph.0306453 380000[\citeauthoryear, \surname, \email, \institute, \acknowledgements, {opening}, {article}, \newdisplay].
143597 2013-03-03 10:39:56 /0306/astro-ph.0306421 4210000[\tableheadfrac].
143598 2013-03-03 10:39:31 /0306/astro-ph.0306456 050000[\affil, \reference, {references}, \acknowledgements]; 1 missing file[ska.sty].
143599 2013-03-03 10:39:20 /0306/astro-ph.0306458 120000[\affil, \keywords]; 1 missing file[esapub.cls].
143600 2013-03-03 10:39:04 /0306/astro-ph.0306446 1010000[\+].
<<< >>>

[0] [200] [400] [600] [800] [1000] [1200] [1400] [1600] [1800] [2000] [2200] [2400] [2600] [2800] [3000] [3200] [3400] [3600] [3800] [4000] [4200] [4400] [4600] [4800] [5000] [5200] [5400] [5600] [5800] [6000] [6200] [6400] [6600] [6800] [7000] [7200] [7400] [7600] [7800] [8000] [8200] [8400] [8600] [8800] [9000] [9200] [9400] [9600] [9800] [10000] [10200] [10400] [10600] [10800] [11000] [11200] [11400] [11600] [11800] [12000] [12200] [12400] [12600] [12800] [13000] [13200] [13400] [13600] [13800] [14000] [14200] [14400] [14600] [14800] [15000] [15200] [15400] [15600] [15800] [16000] [16200] [16400] [16600] [16800] [17000] [17200] [17400] [17600] [17800] [18000] [18200] [18400] [18600] [18800] [19000] [19200] [19400] [19600] [19800] [20000] [20200] [20400] [20600] [20800] [21000] [21200] [21400] [21600] [21800] [22000] [22200] [22400] [22600] [22800] [23000] [23200] [23400] [23600] [23800] [24000] [24200] [24400] [24600] [24800] [25000] [25200] [25400] [25600] [25800] [26000] [26200] [26400] [26600] [26800] [27000] [27200] [27400] [27600] [27800] [28000] [28200] [28400] [28600] [28800] [29000] [29200] [29400] [29600] [29800] [30000] [30200] [30400] [30600] [30800] [31000] [31200] [31400] [31600] [31800] [32000] [32200] [32400] [32600] [32800] [33000] [33200] [33400] [33600] [33800] [34000] [34200] [34400] [34600] [34800] [35000] [35200] [35400] [35600] [35800] [36000] [36200] [36400] [36600] [36800] [37000] [37200] [37400] [37600] [37800] [38000] [38200] [38400] [38600] [38800] [39000] [39200] [39400] [39600] [39800] [40000] [40200] [40400] [40600] [40800] [41000] [41200] [41400] [41600] [41800] [42000] [42200] [42400] [42600] [42800] [43000] [43200] [43400] [43600] [43800] [44000] [44200] [44400] [44600] [44800] [45000] [45200] [45400] [45600] [45800] [46000] [46200] [46400] [46600] [46800] [47000] [47200] [47400] [47600] [47800] [48000] [48200] [48400] [48600] [48800] [49000] [49200] [49400] [49600] [49800] [50000] [50200] [50400] [50600] [50800] [51000] [51200] [51400] [51600] [51800] [52000] [52200] [52400] [52600] [52800] [53000] [53200] [53400] [53600] [53800] [54000] [54200] [54400] [54600] [54800] [55000] [55200] [55400] [55600] [55800] [56000] [56200] [56400] [56600] [56800] [57000] [57200] [57400] [57600] [57800] [58000] [58200] [58400] [58600] [58800] [59000] [59200] [59400] [59600] [59800] [60000] [60200] [60400] [60600] [60800] [61000] [61200] [61400] [61600] [61800] [62000] [62200] [62400] [62600] [62800] [63000] [63200] [63400] [63600] [63800] [64000] [64200] [64400] [64600] [64800] [65000] [65200] [65400] [65600] [65800] [66000] [66200] [66400] [66600] [66800] [67000] [67200] [67400] [67600] [67800] [68000] [68200] [68400] [68600] [68800] [69000] [69200] [69400] [69600] [69800] [70000] [70200] [70400] [70600] [70800] [71000] [71200] [71400] [71600] [71800] [72000] [72200] [72400] [72600] [72800] [73000] [73200] [73400] [73600] [73800] [74000] [74200] [74400] [74600] [74800] [75000] [75200] [75400] [75600] [75800] [76000] [76200] [76400] [76600] [76800] [77000] [77200] [77400] [77600] [77800] [78000] [78200] [78400] [78600] [78800] [79000] [79200] [79400] [79600] [79800] [80000] [80200] [80400] [80600] [80800] [81000] [81200] [81400] [81600] [81800] [82000] [82200] [82400] [82600] [82800] [83000] [83200] [83400] [83600] [83800] [84000] [84200] [84400] [84600] [84800] [85000] [85200] [85400] [85600] [85800] [86000] [86200] [86400] [86600] [86800] [87000] [87200] [87400] [87600] [87800] [88000] [88200] [88400] [88600] [88800] [89000] [89200] [89400] [89600] [89800] [90000] [90200] [90400] [90600] [90800] [91000] [91200] [91400] [91600] [91800] [92000] [92200] [92400] [92600] [92800] [93000] [93200] [93400] [93600] [93800] [94000] [94200] [94400] [94600] [94800] [95000] [95200] [95400] [95600] [95800] [96000] [96200] [96400] [96600] [96800] [97000] [97200] [97400] [97600] [97800] [98000] [98200] [98400] [98600] [98800] [99000] [99200] [99400] [99600] [99800] [100000] [100200] [100400] [100600] [100800] [101000] [101200] [101400] [101600] [101800] [102000] [102200] [102400] [102600] [102800] [103000] [103200] [103400] [103600] [103800] [104000] [104200] [104400] [104600] [104800] [105000] [105200] [105400] [105600] [105800] [106000] [106200] [106400] [106600] [106800] [107000] [107200] [107400] [107600] [107800] [108000] [108200] [108400] [108600] [108800] [109000] [109200] [109400] [109600] [109800] [110000] [110200] [110400] [110600] [110800] [111000] [111200] [111400] [111600] [111800] [112000] [112200] [112400] [112600] [112800] [113000] [113200] [113400] [113600] [113800] [114000] [114200] [114400] [114600] [114800] [115000] [115200] [115400] [115600] [115800] [116000] [116200] [116400] [116600] [116800] [117000] [117200] [117400] [117600] [117800] [118000] [118200] [118400] [118600] [118800] [119000] [119200] [119400] [119600] [119800] [120000] [120200] [120400] [120600] [120800] [121000] [121200] [121400] [121600] [121800] [122000] [122200] [122400] [122600] [122800] [123000] [123200] [123400] [123600] [123800] [124000] [124200] [124400] [124600] [124800] [125000] [125200] [125400] [125600] [125800] [126000] [126200] [126400] [126600] [126800] [127000] [127200] [127400] [127600] [127800] [128000] [128200] [128400] [128600] [128800] [129000] [129200] [129400] [129600] [129800] [130000] [130200] [130400] [130600] [130800] [131000] [131200] [131400] [131600] [131800] [132000] [132200] [132400] [132600] [132800] [133000] [133200] [133400] [133600] [133800] [134000] [134200] [134400] [134600] [134800] [135000] [135200] [135400] [135600] [135800] [136000] [136200] [136400] [136600] [136800] [137000] [137200] [137400] [137600] [137800] [138000] [138200] [138400] [138600] [138800] [139000] [139200] [139400] [139600] [139800] [140000] [140200] [140400] [140600] [140800] [141000] [141200] [141400] [141600] [141800] [142000] [142200] [142400] [142600] [142800] [143000] [143200] [143400] [143600] [143800] [144000] [144200] [144400] [144600] [144800] [145000] [145200] [145400] [145600] [145800] [146000] [146200] [146400] [146600] [146800] [147000] [147200] [147400] [147600] [147800] [148000] [148200] [148400] [148600] [148800] [149000] [149200] [149400] [149600] [149800] [150000] [150200] [150400] [150600] [150800] [151000] [151200] [151400] [151600] [151800] [152000] [152200] [152400] [152600] [152800] [153000] [153200] [153400] [153600] [153800] [154000] [154200] [154400] [154600] [154800] [155000] [155200] [155400] [155600] [155800] [156000] [156200] [156400] [156600] [156800] [157000] [157200] [157400] [157600] [157800] [158000] [158200] [158400] [158600] [158800] [159000] [159200] [159400] [159600] [159800] [160000] [160200] [160400] [160600] [160800] [161000] [161200] [161400] [161600] [161800] [162000] [162200] [162400] [162600] [162800] [163000] [163200] [163400] [163600] [163800] [164000] [164200] [164400] [164600]
 
  The service has been written by
Heinrich Stamerjohanns